Time;durP1;ratioP1;P1;durP2;ratioP2;P2;SDS_P1;SDS_P2;PMS_P1;PMS_P2;Temp;Humidity;BMP_temperature;BMP_pressure;BME280_temperature;BME280_humidity;BME280_pressure;Samples;Min_cycle;Max_cycle;Signal;HPM_P1;HPM_P2
2023/06/28 00:01:06;;;;;;;1.57;1.33;;;21.00;71.10;;;;;;6005096;23;20419;-84
2023/06/28 00:50:53;;;;;;;1.80;1.70;;;20.60;74.50;;;;;;6153697;23;20525;-84
2023/06/28 03:11:43;;;;;;;2.80;1.20;;;19.90;77.00;;;;;;6016708;23;20442;-84
2023/06/28 03:15:29;;;;;;;2.37;1.30;;;19.90;77.00;;;;;;5999418;23;20485;-85
2023/06/28 04:32:17;;;;;;;;;;;;;;;;;;;;;
2023/06/28 04:39:28;;;;;;;1.40;1.30;;;19.80;75.60;;;;;;6009083;23;20469;-85
2023/06/28 11:51:32;;;;;;;2.40;2.00;;;22.60;67.30;;;;;;6161996;23;20482;-83
2023/06/28 11:54:52;;;;;;;3.20;2.23;;;23.00;65.90;;;;;;6164521;23;20423;-84
2023/06/28 11:58:12;;;;;;;3.67;2.20;;;22.60;66.20;;;;;;6143385;23;20461;-84
2023/06/28 12:05:21;;;;;;;3.17;2.67;;;22.90;66.20;;;;;;6147834;23;20454;-83
2023/06/28 12:07:59;;;;;;;3.10;2.10;;;23.20;65.60;;;;;;6179396;23;20509;-82
2023/06/28 12:10:57;;;;;;;2.43;1.97;;;23.50;65.00;;;;;;6146875;23;20473;-84
2023/06/28 12:14:19;;;;;;;7.40;2.57;;;23.60;63.80;;;;;;6179991;23;20434;-84
2023/06/28 12:20:44;;;;;;;4.57;2.67;;;23.40;65.40;;;;;;6091118;23;20429;-84
2023/06/28 12:23:39;;;;;;;4.03;2.37;;;24.20;63.30;;;;;;6059753;23;20425;-84
2023/06/28 12:26:32;;;;;;;3.50;2.40;;;24.20;61.90;;;;;;6068254;23;20406;-84
2023/06/28 12:29:04;;;;;;;3.40;2.30;;;24.10;61.90;;;;;;6110821;23;20445;-85
2023/06/28 12:32:17;;;;;;;;;;;;;;;;;;;;;
2023/06/28 12:34:49;;;;;;;3.10;2.80;;;23.50;62.80;;;;;;6162934;23;20435;-84
2023/06/28 12:56:20;;;;;;;4.30;2.33;;;24.00;62.60;;;;;;6127908;23;20399;-84
2023/06/28 12:59:26;;;;;;;;;;;;;;;;;;;;;
2023/06/28 13:05:45;;;;;;;5.83;2.57;;;23.80;63.10;;;;;;6158496;23;20487;-85
2023/06/28 13:08:51;;;;;;;4.13;2.83;;;23.70;63.90;;;;;;6164246;23;20474;-85
2023/06/28 13:12:12;;;;;;;3.73;2.67;;;23.90;64.10;;;;;;6143593;23;20434;-85
2023/06/28 13:15:22;;;;;;;6.30;2.90;;;23.90;63.70;;;;;;6103720;23;20411;-83
2023/06/28 13:19:14;;;;;;;4.57;2.60;;;24.00;63.80;;;;;;6145888;23;20389;-85
2023/06/28 13:22:25;;;;;;;4.57;2.90;;;24.20;64.10;;;;;;6169924;23;20387;-85
2023/06/28 13:46:56;;;;;;;3.80;2.60;;;24.40;64.10;;;;;;6136345;23;20525;-85
2023/06/28 13:50:38;;;;;;;5.37;2.70;;;24.50;63.80;;;;;;6135395;23;20440;-85
2023/06/28 13:54:24;;;;;;;;;;;;;;;;;;;;;
2023/06/28 14:05:52;;;;;;;;;;;;;;;;;;;;;
2023/06/28 14:16:12;;;;;;;;;;;;;;;;;;;;;
2023/06/28 14:38:02;;;;;;;;;;;;;;;;;;;;;
2023/06/28 14:47:38;;;;;;;7.07;4.10;;;24.40;65.00;;;;;;6165715;23;20490;-85
2023/06/28 14:55:42;;;;;;;7.27;2.83;;;24.30;65.70;;;;;;6076433;23;20450;-85
2023/06/28 14:59:32;;;;;;;2.50;1.93;;;24.30;65.80;;;;;;6018901;23;20453;-86
2023/06/28 15:03:18;;;;;;;4.40;2.67;;;24.40;65.80;;;;;;6044891;23;20434;-85
2023/06/28 15:06:43;;;;;;;5.73;3.00;;;24.40;65.80;;;;;;6062074;23;20537;-85
2023/06/28 15:09:57;;;;;;;;;;;;;;;;;;;;;
2023/06/28 15:12:45;;;;;;;3.00;2.53;;;24.60;65.00;;;;;;6109930;23;20519;-86
2023/06/28 15:30:24;;;;;;;2.70;2.50;;;25.70;62.40;;;;;;6151172;23;20405;-81
2023/06/28 15:33:29;;;;;;;4.53;2.60;;;25.60;61.90;;;;;;6150955;23;20415;-83
2023/06/28 15:36:26;;;;;;;3.40;3.10;;;25.60;61.50;;;;;;6151847;23;20442;-84
2023/06/28 15:39:51;;;;;;;4.50;2.77;;;25.40;62.00;;;;;;6157400;23;20470;-86
2023/06/28 15:42:55;;;;;;;5.43;2.90;;;24.90;63.80;;;;;;6174474;23;20423;-84
2023/06/28 15:45:36;;;;;;;3.30;2.27;;;25.10;63.50;;;;;;6141295;23;20491;-85
2023/06/28 15:48:45;;;;;;;4.47;2.60;;;25.50;62.30;;;;;;6116345;23;20422;-85
2023/06/28 15:52:46;;;;;;;5.13;2.87;;;25.40;62.10;;;;;;6118073;23;20431;-84
2023/06/28 16:06:19;;;;;;;2.97;2.30;;;25.00;63.80;;;;;;5987188;23;20527;-85
2023/06/28 16:09:19;;;;;;;3.57;2.53;;;24.90;64.10;;;;;;5988099;24;20436;-83
2023/06/28 16:12:38;;;;;;;5.20;3.10;;;25.40;63.90;;;;;;5981034;23;20795;-84
2023/06/28 16:19:23;;;;;;;4.03;2.67;;;25.40;62.40;;;;;;5929715;24;20460;-85
2023/06/28 16:22:45;;;;;;;3.73;2.80;;;25.10;64.20;;;;;;5965722;24;20539;-83
2023/06/28 16:29:20;;;;;;;3.40;3.00;;;25.20;63.60;;;;;;6132587;23;20429;-86
2023/06/28 16:32:26;;;;;;;3.97;2.70;;;25.50;63.40;;;;;;6114974;23;20952;-85
2023/06/28 16:39:03;;;;;;;3.93;2.60;;;25.00;64.30;;;;;;5993090;24;20419;-85
2023/06/28 16:42:16;;;;;;;;;;;;;;;;;;;;;
2023/06/28 16:45:08;;;;;;;3.77;2.60;;;24.90;65.40;;;;;;6109107;23;20411;-85
2023/06/28 16:58:44;;;;;;;6.40;3.30;;;24.90;65.20;;;;;;5714351;22;11399206;-88
2023/06/28 17:01:33;;;;;;;2.93;2.73;;;25.50;62.40;;;;;;6153365;23;20179;-85
2023/06/28 17:04:18;;;;;;;3.40;2.80;;;25.60;63.00;;;;;;6179839;23;20430;-84
2023/06/28 17:06:51;;;;;;;2.80;2.60;;;25.60;63.70;;;;;;6151401;23;20476;-84
2023/06/28 17:09:30;;;;;;;2.63;2.43;;;25.50;62.90;;;;;;6150181;23;20453;-85
2023/06/28 17:12:22;;;;;;;4.63;2.30;;;25.30;63.60;;;;;;6143198;23;20425;-85
2023/06/28 17:15:25;;;;;;;4.50;2.80;;;25.00;64.10;;;;;;6145621;23;20427;-84
2023/06/28 17:23:06;;;;;;;5.07;2.70;;;25.10;65.00;;;;;;6142606;23;20437;-85
2023/06/28 17:25:43;;;;;;;3.80;2.80;;;24.80;65.40;;;;;;6119266;23;20437;-86
2023/06/28 17:28:33;;;;;;;3.60;3.30;;;25.00;65.70;;;;;;6148760;23;20406;-86
2023/06/28 17:31:23;;;;;;;7.83;3.40;;;25.30;65.40;;;;;;6151930;23;20468;-85
2023/06/28 17:37:20;;;;;;;5.73;4.00;;;25.40;63.50;;;;;;6172560;23;20473;-86
2023/06/28 17:40:23;;;;;;;5.80;3.03;;;25.10;64.70;;;;;;6151025;23;20509;-85
2023/06/28 17:43:10;;;;;;;4.97;3.10;;;25.10;65.40;;;;;;6148259;23;20402;-85
2023/06/28 17:46:05;;;;;;;4.83;2.73;;;24.80;65.40;;;;;;6150404;23;20468;-85
2023/06/28 17:48:50;;;;;;;3.70;3.40;;;24.90;66.40;;;;;;6185157;23;20399;-85
2023/06/28 17:51:39;;;;;;;3.37;3.07;;;25.10;66.30;;;;;;6163203;23;20414;-84
2023/06/28 17:54:47;;;;;;;2.67;2.47;;;25.20;65.40;;;;;;6158889;23;20442;-86
2023/06/28 17:57:27;;;;;;;3.40;3.10;;;25.00;65.60;;;;;;6057552;23;20418;-85
2023/06/28 18:00:05;;;;;;;3.40;3.10;;;25.10;65.70;;;;;;6049506;23;20415;-84
2023/06/28 18:06:08;;;;;;;3.90;3.07;;;24.80;66.00;;;;;;6117033;23;20489;-83
2023/06/28 18:09:05;;;;;;;4.10;3.67;;;24.80;66.60;;;;;;6143385;23;20400;-86
2023/06/28 18:12:03;;;;;;;3.73;3.00;;;24.60;67.20;;;;;;6144431;23;20435;-86
2023/06/28 18:15:04;;;;;;;3.93;2.67;;;24.80;66.80;;;;;;6140075;23;20427;-86
2023/06/28 18:18:51;;;;;;;;;;;;;;;;;;;;;
2023/06/28 18:29:55;;;;;;;4.97;3.70;;;24.50;67.30;;;;;;6082146;23;20428;-85
2023/06/28 18:32:34;;;;;;;4.90;3.13;;;24.50;68.00;;;;;;6068162;23;20417;-84
2023/06/28 18:35:33;;;;;;;5.37;3.70;;;24.50;67.50;;;;;;6144816;23;20431;-84
2023/06/28 18:38:13;;;;;;;3.10;2.80;;;24.40;68.10;;;;;;6141520;23;20435;-86
2023/06/28 18:41:19;;;;;;;4.87;3.00;;;24.20;69.00;;;;;;6126158;23;20412;-85
2023/06/28 18:44:43;;;;;;;4.53;3.50;;;24.30;68.70;;;;;;6108534;23;20443;-85
2023/06/28 18:47:45;;;;;;;3.73;3.40;;;24.20;68.60;;;;;;6143353;23;20440;-84
2023/06/28 18:50:53;;;;;;;4.17;3.33;;;24.00;69.10;;;;;;6135075;23;20814;-84
2023/06/28 18:53:54;;;;;;;4.23;3.07;;;23.80;69.80;;;;;;6119378;23;20414;-85
2023/06/28 18:57:19;;;;;;;4.53;3.37;;;24.00;70.60;;;;;;6151239;23;20427;-84
2023/06/28 19:00:26;;;;;;;6.87;3.30;;;24.20;69.40;;;;;;6118472;23;20413;-83
2023/06/28 19:03:08;;;;;;;3.43;3.10;;;24.10;69.90;;;;;;6151113;23;20405;-82
2023/06/28 19:05:46;;;;;;;6.80;5.10;;;24.00;70.60;;;;;;6156383;23;20410;-83
2023/06/28 19:11:44;;;;;;;7.77;4.00;;;24.20;70.10;;;;;;6146453;23;20407;-86
2023/06/28 19:14:37;;;;;;;4.60;3.77;;;24.10;70.30;;;;;;6129968;23;20459;-84
2023/06/28 19:18:07;;;;;;;7.50;3.40;;;24.10;70.40;;;;;;6082649;23;20406;-83
2023/06/28 19:21:22;;;;;;;5.23;3.70;;;24.00;71.00;;;;;;6121458;23;20539;-85
2023/06/28 19:24:47;;;;;;;7.17;4.20;;;24.10;70.60;;;;;;6115243;23;20459;-86
2023/06/28 19:27:55;;;;;;;;;;;;;;;;;;;;;
2023/06/28 19:34:17;;;;;;;5.67;3.77;;;24.20;71.10;;;;;;6146546;23;20496;-85
2023/06/28 19:36:55;;;;;;;4.57;4.03;;;24.10;71.50;;;;;;6123037;23;20399;-85
2023/06/28 19:39:34;;;;;;;6.33;3.60;;;24.20;71.50;;;;;;6122397;23;20415;-85
2023/06/28 19:42:12;;;;;;;4.10;3.07;;;24.10;71.50;;;;;;6122895;23;20407;-85
2023/06/28 19:45:09;;;;;;;4.73;3.30;;;23.90;72.20;;;;;;6070686;23;20537;-84
2023/06/28 19:47:58;;;;;;;3.90;3.60;;;23.80;72.70;;;;;;6087904;23;20437;-85
2023/06/28 19:54:11;;;;;;;4.97;4.17;;;23.90;73.30;;;;;;6073869;23;20440;-85
2023/06/28 19:56:56;;;;;;;5.07;3.67;;;23.90;73.40;;;;;;6067556;23;20417;-85
2023/06/28 19:59:51;;;;;;;6.50;4.03;;;23.90;73.60;;;;;;6059186;23;20406;-83
2023/06/28 20:02:21;;;;;;;5.70;4.10;;;23.90;73.70;;;;;;6059520;23;20496;-83
2023/06/28 20:05:27;;;;;;;7.57;3.80;;;23.80;74.50;;;;;;6065226;23;20432;-85
2023/06/28 20:08:08;;;;;;;3.70;3.40;;;23.70;74.70;;;;;;6066108;23;20444;-85
2023/06/28 20:10:54;;;;;;;4.73;3.90;;;23.70;74.80;;;;;;6066838;23;20401;-85
2023/06/28 20:13:58;;;;;;;8.53;4.13;;;23.70;74.90;;;;;;6090604;23;20457;-85
2023/06/28 20:17:02;;;;;;;5.50;4.00;;;23.80;74.70;;;;;;6052165;23;20453;-85
2023/06/28 20:19:41;;;;;;;6.53;4.40;;;23.60;75.10;;;;;;6060236;23;20441;-83
2023/06/28 20:22:34;;;;;;;5.97;3.90;;;23.70;75.10;;;;;;6062769;23;20433;-85
2023/06/28 20:25:30;;;;;;;5.97;3.87;;;23.70;75.30;;;;;;6059065;23;20500;-84
2023/06/28 20:28:14;;;;;;;5.47;3.70;;;23.50;74.80;;;;;;6056440;23;20442;-85
2023/06/28 20:30:56;;;;;;;5.60;4.10;;;23.60;75.10;;;;;;6062327;23;20400;-84
2023/06/28 20:33:31;;;;;;;4.00;3.60;;;23.70;74.50;;;;;;6060045;23;20476;-84
2023/06/28 20:36:21;;;;;;;;;;;;;;;;;;;;;
2023/06/28 20:39:17;;;;;;;4.23;3.80;;;23.30;75.20;;;;;;6077640;23;20737;-84
2023/06/28 20:42:01;;;;;;;6.73;4.27;;;23.40;75.70;;;;;;6059855;23;20417;-85
2023/06/28 20:44:41;;;;;;;7.30;4.60;;;23.40;75.60;;;;;;6061135;23;20488;-84
2023/06/28 20:47:31;;;;;;;4.20;3.90;;;23.30;75.70;;;;;;6063892;23;20481;-84
2023/06/28 20:50:29;;;;;;;8.77;4.47;;;23.30;75.70;;;;;;6030515;23;20433;-83
2023/06/28 20:53:05;;;;;;;5.60;5.00;;;23.30;75.90;;;;;;6064387;23;20447;-86
2023/06/28 20:56:11;;;;;;;6.63;4.30;;;23.20;76.40;;;;;;6060695;23;20416;-84
2023/06/28 20:58:50;;;;;;;4.40;4.00;;;23.30;76.90;;;;;;6056921;23;20447;-85
2023/06/28 21:01:50;;;;;;;4.17;3.77;;;23.20;76.50;;;;;;6057945;23;20425;-86
2023/06/28 21:04:36;;;;;;;6.10;3.83;;;23.20;77.30;;;;;;6061648;23;20485;-84
2023/06/28 21:07:12;;;;;;;5.47;3.90;;;23.20;77.20;;;;;;6063070;23;20443;-84
2023/06/28 21:09:47;;;;;;;6.27;4.80;;;23.10;77.50;;;;;;6060174;23;20433;-86
2023/06/28 21:12:43;;;;;;;5.33;4.03;;;23.00;77.90;;;;;;6064842;23;20390;-86
2023/06/28 21:15:16;;;;;;;6.87;4.30;;;22.90;79.00;;;;;;6061376;23;20436;-85
2023/06/28 21:18:02;;;;;;;6.50;4.80;;;22.80;78.80;;;;;;6085293;23;20382;-84
2023/06/28 21:20:49;;;;;;;4.40;4.00;;;22.90;78.70;;;;;;6062831;23;20480;-83
2023/06/28 21:23:48;;;;;;;6.47;4.90;;;23.10;77.90;;;;;;6065363;23;20443;-84
2023/06/28 21:26:24;;;;;;;6.93;4.70;;;23.10;77.90;;;;;;6060424;23;20511;-86
2023/06/28 21:29:18;;;;;;;7.03;5.17;;;23.20;77.70;;;;;;6056983;23;20492;-84
2023/06/28 21:32:03;;;;;;;4.70;4.00;;;23.10;78.10;;;;;;6063492;23;20405;-83
2023/06/28 21:34:54;;;;;;;4.90;4.40;;;23.10;78.00;;;;;;6066530;23;20448;-85
2023/06/28 21:37:43;;;;;;;4.97;4.47;;;23.30;78.30;;;;;;6064339;23;20431;-85
2023/06/28 21:40:22;;;;;;;5.00;3.93;;;23.30;78.30;;;;;;6062343;23;20458;-84
2023/06/28 21:43:02;;;;;;;7.80;5.10;;;23.50;77.70;;;;;;6059918;23;20482;-82
2023/06/28 21:45:34;;;;;;;4.70;4.30;;;23.50;77.30;;;;;;6077773;23;20421;-85
2023/06/28 21:48:28;;;;;;;5.40;4.20;;;23.60;77.60;;;;;;6086769;23;20508;-85
2023/06/28 21:51:23;;;;;;;6.60;4.50;;;23.50;77.40;;;;;;6082157;23;20433;-85
2023/06/28 21:54:05;;;;;;;7.63;4.57;;;23.30;78.00;;;;;;6086758;23;20488;-84
2023/06/28 21:56:53;;;;;;;4.33;3.93;;;23.30;78.00;;;;;;6085898;23;20446;-84
2023/06/28 21:59:40;;;;;;;4.67;4.27;;;23.30;78.50;;;;;;6091580;23;20429;-82
2023/06/28 22:02:44;;;;;;;7.43;4.70;;;23.30;79.20;;;;;;6093214;23;20432;-85
2023/06/28 22:05:23;;;;;;;10.20;5.90;;;23.20;79.60;;;;;;6073913;23;20810;-84
2023/06/28 22:08:39;;;;;;;;;;;;;;;;;;;;;
2023/06/28 22:11:16;;;;;;;7.07;5.00;;;23.40;79.40;;;;;;6090068;23;20448;-82
2023/06/28 22:14:06;;;;;;;8.33;5.30;;;23.40;78.60;;;;;;6087714;23;20438;-83
2023/06/28 22:16:56;;;;;;;5.93;5.40;;;23.40;79.00;;;;;;6086035;23;20394;-85
2023/06/28 22:19:45;;;;;;;6.20;4.90;;;23.30;79.60;;;;;;6087558;23;20416;-83
2023/06/28 22:22:29;;;;;;;7.60;4.87;;;23.10;80.50;;;;;;6087671;23;20418;-85
2023/06/28 22:25:11;;;;;;;7.13;5.13;;;23.00;80.70;;;;;;6087071;23;20493;-82
2023/06/28 22:27:58;;;;;;;5.87;4.57;;;22.80;81.60;;;;;;6085935;23;21238;-85
2023/06/28 22:30:41;;;;;;;6.20;4.63;;;22.90;82.10;;;;;;6084268;23;20502;-83
2023/06/28 22:33:26;;;;;;;5.17;4.67;;;23.10;81.60;;;;;;6083354;23;20417;-83
2023/06/28 22:36:11;;;;;;;5.83;4.83;;;23.20;81.00;;;;;;6080553;23;20418;-83
2023/06/28 22:38:56;;;;;;;5.10;4.57;;;23.20;80.60;;;;;;6078170;23;20421;-83
2023/06/28 22:41:43;;;;;;;6.50;4.50;;;23.20;80.40;;;;;;6082305;23;20413;-84
2023/06/28 22:44:42;;;;;;;8.03;4.87;;;23.00;80.90;;;;;;6079998;23;20441;-84
2023/06/28 22:47:31;;;;;;;6.03;4.07;;;22.80;81.50;;;;;;6060719;23;20493;-83
2023/06/28 22:50:15;;;;;;;4.40;4.00;;;22.60;81.50;;;;;;6083198;23;20394;-84
2023/06/28 22:52:51;;;;;;;4.73;4.30;;;22.70;82.00;;;;;;6081895;23;20817;-83
2023/06/28 22:55:35;;;;;;;4.93;3.90;;;22.60;82.50;;;;;;6085081;23;20432;-85
2023/06/28 22:58:59;;;;;;;5.90;4.37;;;22.70;82.00;;;;;;6087655;23;20428;-84
2023/06/28 23:01:39;;;;;;;4.73;3.37;;;22.70;81.70;;;;;;6083705;23;20470;-86
2023/06/28 23:04:20;;;;;;;4.93;3.90;;;22.60;81.70;;;;;;6084388;23;20457;-84
2023/06/28 23:07:03;;;;;;;11.30;7.40;;;22.60;82.10;;;;;;6088931;23;20406;-83
2023/06/28 23:10:00;;;;;;;4.20;3.80;;;22.50;82.50;;;;;;6085034;23;20405;-85
2023/06/28 23:12:49;;;;;;;4.27;3.90;;;22.50;83.20;;;;;;6080391;23;20406;-85
2023/06/28 23:15:41;;;;;;;;;;;;;;;;;;;;;
2023/06/28 23:18:35;;;;;;;5.93;4.00;;;22.40;83.60;;;;;;6086121;23;20802;-84
2023/06/28 23:21:21;;;;;;;6.70;3.97;;;22.40;84.30;;;;;;6080589;23;20416;-84
2023/06/28 23:24:16;;;;;;;7.77;4.20;;;22.50;83.30;;;;;;6083149;23;20439;-86
2023/06/28 23:27:01;;;;;;;5.80;3.63;;;22.50;83.50;;;;;;6081944;23;20456;-86
2023/06/28 23:29:43;;;;;;;6.63;4.00;;;22.30;84.10;;;;;;6082127;23;20421;-84
2023/06/28 23:32:33;;;;;;;4.87;4.10;;;22.40;84.50;;;;;;6082043;23;20473;-84
2023/06/28 23:35:17;;;;;;;5.60;4.13;;;22.50;84.20;;;;;;6083071;23;20432;-84
2023/06/28 23:38:01;;;;;;;4.23;3.83;;;22.30;85.00;;;;;;6086331;23;20436;-85
2023/06/28 23:40:41;;;;;;;4.50;4.10;;;22.20;85.30;;;;;;6086350;23;20409;-83
2023/06/28 23:43:15;;;;;;;6.97;5.07;;;22.20;86.20;;;;;;6087093;23;20507;-84
2023/06/28 23:45:55;;;;;;;4.20;3.77;;;22.10;86.40;;;;;;6085290;23;20436;-83
2023/06/28 23:48:45;;;;;;;4.90;4.30;;;22.10;86.70;;;;;;6083970;23;20519;-83
2023/06/28 23:51:44;;;;;;;7.30;4.20;;;22.40;85.90;;;;;;6085587;23;20779;-85
2023/06/28 23:54:37;;;;;;;4.30;3.77;;;22.40;85.00;;;;;;6086491;23;20470;-82
2023/06/28 23:57:17;;;;;;;5.30;4.20;;;22.40;85.50;;;;;;6086635;23;20410;-84
